Giltner, NE (68841)

10:53 PM CST on December 28, 2014 (GMT -0600)
Buller Spraying, inc. | Change Station
CLOSE
Current Station
Personal Weather Station
Location: Henderson, NE
Elevation: 1785 ft
Nearby Weather Stations

Elev 1785 ft 40.70 °N, 97.90 °W | Updated 3 minutes ago

Overcast
Overcast
23.4 °F
Feels Like 18 °F
N
4.0
Wind Variable Wind from NE
Gusts 17.0 mph

Today
High -- | Low -- °F
--% Chance of Precip.
Yesterday
High -- | Low -- °F
Precip. -- in
7:55 AM 5:12 PM
First Quarter, 55% visible
Pressure 30.15 in
Visibility 10.0 miles
Clouds Scattered Clouds 6000 ft
Scattered Clouds 6500 ft
Overcast 11000 ft
Windchill 18 °F
Dew Point 20 °F
Humidity 86%
Rainfall 0.00 in
Snow Depth Not available.
UV 0 out of 12
Pollen .10 out of 12
Air Quality Not available.
Flu Activity Not available.
METAR KAUH 290435Z AUTO 04005KT 10SM SCT060 SCT065 OVC110 M05/M07 A3015 RMK AO2 T10521071

More Conditions Fewer Conditions

Pressure 30.15 in
Visibility 10.0 miles
Clouds Scattered Clouds 6000 ft
Scattered Clouds 6500 ft
Overcast 11000 ft
Windchill 18 °F
Dew Point 20 °F
Humidity 86%
Rainfall 0.00 in
Snow Depth Not available.
UV 0 out of 12
Pollen .10 out of 12
Air Quality Not available.
Flu Activity Not available.
METAR KAUH 290435Z AUTO 04005KT 10SM SCT060 SCT065 OVC110 M05/M07 A3015 RMK AO2 T10521071

More Conditions Fewer Conditions

10-Day Weather Forecast

Almanac

Astronomy

Dec. 28, 2014 Rise Set
Actual Time
Civil Twilight
Nautical Twilight
Astronomical Twilight
Moon
Length of Visible Light
Length of Day
Tomorrow will be .
, % of the Moon is Illuminated

Today's Extremes

State Highs State Lows

Community

WunderPhotos

Upload Photos

1,781,530 photos uploaded!

WunderBlogs® & News

Nearby

Air Quality

  Air Quality AQ Index Pollutant
Not available.

Snow Depth

Station Depth Elevation

Earthquake Activity

City Distance Mag. Time & Date
Minimum magnitude displayed is 2.5.

Coastal Water Temperatures

Place Temperature

Nearby Weather Stations